Wautoma, WI

12:55 PM CST on December 05, 2016 (GMT -0600)
Wautoma | | Change Station

Elev 860 ft 44.04 °N, 89.30 °W | Updated 59 minutes ago

Overcast
Overcast
35 °F
Feels Like 30 °F
N
6
Wind Variable Wind from South

Today
High -- | Low -- °F
--% Chance of Precip.
Yesterday
High -- | Low -- °F
Precip. -- in
Pressure 30.01 in
Visibility 5.0 miles
Clouds Overcast 500 ft
Windchill 30 °F
Dew Point 32 °F
Humidity 89%
Rainfall 0.00 in
Snow Depth Not available.
7:16 AM 4:19 PM
Waxing Crescent, 34% visible
METAR KY50 051756Z AUTO 19005KT 5SM BR OVC005 02/00 A2992 RMK AO2 SLP161 6//// T00170000 10022 20006 58002
Pressure 30.01 in
Visibility 5.0 miles
Clouds Overcast 500 ft
Windchill 30 °F
Dew Point 32 °F
Humidity 89%
Rainfall 0.00 in
Snow Depth Not available.
7:16 AM 4:19 PM
Waxing Crescent, 34% visible
METAR KY50 051756Z AUTO 19005KT 5SM BR OVC005 02/00 A2992 RMK AO2 SLP161 6//// T00170000 10022 20006 58002

10-Day Weather Forecast

Almanac

Astronomy

Dec. 05, 2016 Rise Set
Actual Time
Civil Twilight
Nautical Twilight
Astronomical Twilight
Moon
Length of Visible Light
Length of Day
Tomorrow will be .
, % of the Moon is Illuminated

Today's Extremes

State Highs State Lows

Community

WunderPhotos

Upload Photos

1,955,851 photos uploaded!

WunderBlog® & News

Nearby

Air Quality

  Air Quality AQ Index Pollutant
Not available.

Snow Depth

Station Depth Elevation

Earthquake Activity

City Distance Mag. Time & Date
Minimum magnitude displayed is 2.5.

Coastal Water Temperatures

Place Temperature

Stations

Nearby Weather Stations

Station Location Temp. Windchill Dew Point Humidity Wind Precip. Elev Updated Type
                   

Watches & Warnings

There are currently no watches in effect.